Hauptseite
METAR-TAF:

METAR-TAF

Flughäfen :

Ulan-Ude, Russland

Breite: 51-50N, Länge: 107-36E, Höhe: 510 m

Beobachtung

Neuester Wetterbericht von vor 44 Minuten, um 12:30 UTC
Wind 8 kt aus Nordwest
Temperatur 5°C
Luftfeuchtigkeit 35%
Luftdruck 1013 hPa
Sichtweite 10 km oder mehr
Leicht bewölkt in der Höhe von 4600 ft

METAR: UIUU 251230Z 31004MPS 9999 FEW046 05/M09 Q1013 R26/CLRD60 NOSIG RMK QFE715/0954

Zeit: 21:14 (13:14 UTC)

Prognose

Neuester Wetterbericht von vor 2 Stunden und 14 Minuten, um 11:00 UTC
Gültige Prognose vom 25 um 12 UTC bis 26 um 12 UTC
Wind 10 kt aus Nordwest, Böen bis zu 19 kt
Sichtweite 10 km oder mehr
Aufgelockert bewölkt in der Höhe von 4000 ft, Kumulonimbus.
Zeitweise
vom 25 um 12 UTC bis 26 um 12 UTC
Wind 6 kt aus Nord/Nordost, Böen bis zu 16 kt

TAF: UIUU 251100Z 2512/2612 31005G10MPS 9999 SCT040CB TEMPO 2512/2612 02003G08MPS

Wetterbeobachtungen und Prognosen von mehr als 4000 Flughäfen (METAR und TAF Bericht).

Die verfügbaren Stationen werden durch gelbe und rote Markierungen auf der Karte dargestellt.

Führen Sie die Maus auf sie, um den Namen der Station zu sehen.

Darauf klicken, um die Beobachtung von Wetterbeobachtungen und Prognosen zu sehen.

Um die Karte zu ändern : klicken Sie auf den grünen Tasten mit einem schwarzen Kreuz Zum Vergrößern, auf den grünen Button mit einem Gedankenstrich zu verkleinern, oder auf die grünen Pfeile für benachbarte Karten.


METAR-TAF: